createdAt,value
2023-01-19T00:00:35.670Z,1.63
2023-01-19T00:03:21.704Z,1.53
2023-01-19T00:06:07.893Z,1.83
2023-01-19T00:08:53.251Z,1.77
2023-01-19T00:11:38.708Z,1.47
2023-01-19T00:14:24.201Z,1.83
2023-01-19T00:17:09.357Z,1.50
2023-01-19T00:19:54.665Z,1.70
2023-01-19T00:22:39.891Z,1.47
2023-01-19T00:25:25.389Z,1.53
2023-01-19T00:28:12.874Z,1.30
2023-01-19T00:30:58.371Z,1.67
2023-01-19T00:33:43.696Z,1.60
2023-01-19T00:36:28.968Z,1.40
2023-01-19T00:39:14.343Z,1.67
2023-01-19T00:42:18.277Z,1.40
2023-01-19T00:45:03.542Z,1.60
2023-01-19T00:47:50.385Z,1.37
2023-01-19T00:50:35.692Z,1.40
2023-01-19T00:53:21.083Z,1.60
2023-01-19T00:56:06.931Z,1.40
2023-01-19T00:58:52.296Z,1.50
2023-01-19T01:01:45.173Z,1.60
2023-01-19T01:04:32.021Z,1.63
2023-01-19T01:07:17.433Z,1.30
2023-01-19T01:10:02.819Z,1.60
2023-01-19T01:12:57.313Z,1.20
2023-01-19T01:15:44.576Z,1.30
2023-01-19T01:18:29.955Z,1.37
2023-01-19T01:21:15.037Z,1.50
2023-01-19T01:24:00.870Z,1.40
2023-01-19T01:26:46.311Z,1.47
2023-01-19T01:29:31.813Z,1.30
2023-01-19T01:32:17.264Z,1.30
2023-01-19T01:35:02.494Z,1.30
2023-01-19T01:37:47.771Z,1.47
2023-01-19T01:40:33.103Z,1.40
2023-01-19T01:43:20.689Z,1.33
2023-01-19T01:46:06.983Z,1.40
2023-01-19T01:49:02.651Z,1.40
2023-01-19T01:51:52.588Z,1.47
2023-01-19T01:54:37.756Z,1.53
2023-01-19T01:57:23.132Z,1.50
2023-01-19T02:00:09.099Z,1.43
2023-01-19T02:02:55.091Z,1.40
2023-01-19T02:05:41.264Z,1.40
2023-01-19T02:09:20.790Z,1.40
2023-01-19T02:12:25.447Z,1.47
2023-01-19T02:15:19.082Z,1.40
2023-01-19T02:18:04.487Z,1.47
2023-01-19T02:21:21.174Z,1.40
2023-01-19T02:24:07.190Z,1.60
2023-01-19T02:26:52.655Z,1.47
2023-01-19T02:29:38.290Z,1.30
2023-01-19T02:32:23.636Z,1.60
2023-01-19T02:35:09.934Z,1.30
2023-01-19T02:37:55.441Z,1.23
2023-01-19T02:40:44.055Z,1.40
2023-01-19T02:43:30.701Z,1.30
2023-01-19T02:46:16.654Z,1.43
2023-01-19T02:49:02.030Z,1.30
2023-01-19T02:51:47.513Z,1.30
2023-01-19T02:54:35.815Z,1.30
2023-01-19T02:57:32.239Z,1.50
2023-01-19T03:00:29.659Z,1.63
2023-01-19T03:03:24.227Z,1.33
2023-01-19T03:06:22.464Z,1.30
2023-01-19T03:09:28.499Z,1.13
2023-01-19T03:12:31.327Z,1.20
2023-01-19T03:15:27.458Z,1.30
2023-01-19T03:18:16.059Z,1.40
2023-01-19T03:21:06.140Z,1.00
2023-01-19T03:23:53.101Z,1.20
2023-01-19T03:26:44.069Z,1.20
2023-01-19T03:29:34.937Z,1.40
2023-01-19T03:32:26.010Z,1.23
2023-01-19T03:35:15.669Z,1.10
2023-01-19T03:38:06.350Z,1.30
2023-01-19T03:40:56.234Z,1.37
2023-01-19T03:43:41.822Z,1.40
2023-01-19T03:46:28.576Z,1.03
2023-01-19T03:49:14.127Z,1.33
2023-01-19T03:52:00.032Z,1.40
2023-01-19T03:54:45.283Z,1.20
2023-01-19T03:57:31.131Z,1.23
2023-01-19T04:00:16.730Z,1.20
2023-01-19T04:03:03.710Z,1.20
2023-01-19T04:05:49.321Z,1.30
2023-01-19T04:08:34.842Z,1.30
2023-01-19T04:11:20.119Z,1.20
2023-01-19T04:14:05.433Z,1.43
2023-01-19T04:16:51.256Z,0.90
2023-01-19T04:19:37.207Z,1.23
2023-01-19T04:22:22.533Z,1.10
2023-01-19T04:25:08.590Z,1.13
2023-01-19T04:27:55.223Z,1.33
2023-01-19T04:30:40.902Z,1.23
2023-01-19T04:33:27.801Z,1.03
2023-01-19T04:36:13.029Z,1.13
2023-01-19T04:38:58.216Z,1.00
2023-01-19T04:41:43.961Z,1.13
2023-01-19T04:44:29.552Z,1.07
2023-01-19T04:47:15.465Z,1.33
2023-01-19T04:50:00.616Z,1.10
2023-01-19T04:52:46.982Z,1.50
2023-01-19T04:55:32.311Z,1.27
2023-01-19T04:58:17.652Z,1.40
2023-01-19T05:01:07.908Z,1.80
2023-01-19T05:03:53.137Z,1.60
2023-01-19T05:06:38.514Z,1.50
2023-01-19T05:09:23.742Z,1.80
2023-01-19T05:12:09.156Z,1.77
2023-01-19T05:14:54.688Z,1.80
2023-01-19T05:17:40.167Z,1.73
2023-01-19T05:20:25.807Z,1.87
2023-01-19T05:23:11.713Z,1.70
2023-01-19T05:25:57.547Z,1.50
2023-01-19T05:28:43.466Z,1.73
2023-01-19T05:31:28.868Z,1.77
2023-01-19T05:34:14.571Z,1.60
2023-01-19T05:37:00.127Z,1.60
2023-01-19T05:39:45.341Z,1.30
2023-01-19T05:42:32.675Z,1.57
2023-01-19T05:45:18.060Z,1.60
2023-01-19T05:48:03.595Z,1.80
2023-01-19T05:50:49.692Z,1.40
2023-01-19T05:53:35.293Z,1.53
2023-01-19T05:56:20.982Z,1.70
2023-01-19T05:59:06.472Z,2.03
2023-01-19T06:01:52.317Z,2.20
2023-01-19T06:04:37.793Z,1.73
2023-01-19T06:07:24.496Z,2.90
2023-01-19T06:10:11.522Z,3.20
2023-01-19T06:12:57.073Z,2.90
2023-01-19T06:15:43.742Z,2.83
2023-01-19T06:18:29.480Z,2.70
2023-01-19T06:21:15.026Z,2.50
2023-01-19T06:24:00.308Z,2.90
2023-01-19T06:26:45.505Z,2.50
2023-01-19T06:29:30.836Z,2.30
2023-01-19T06:32:16.092Z,2.70
2023-01-19T06:35:01.408Z,1.93
2023-01-19T06:37:46.734Z,2.13
2023-01-19T06:40:32.057Z,2.30
2023-01-19T06:43:17.233Z,2.47
2023-01-19T06:46:03.067Z,2.70
2023-01-19T06:48:48.406Z,2.63
2023-01-19T06:51:34.284Z,3.13
2023-01-19T06:54:20.195Z,3.10
2023-01-19T06:57:05.646Z,3.50
2023-01-19T06:59:50.859Z,3.13
2023-01-19T07:02:36.322Z,3.53
2023-01-19T07:05:22.210Z,3.10
2023-01-19T07:08:07.426Z,3.07
2023-01-19T07:11:26.362Z,3.50
2023-01-19T07:13:58.112Z,3.00
2023-01-19T07:16:43.377Z,3.30
2023-01-19T07:19:28.514Z,3.10
2023-01-19T07:22:13.795Z,2.80
2023-01-19T07:24:59.054Z,2.97
2023-01-19T07:27:45.078Z,2.97
2023-01-19T07:30:30.596Z,2.83
2023-01-19T07:33:15.817Z,2.90
2023-01-19T07:36:00.978Z,2.90
2023-01-19T07:38:46.323Z,3.30
2023-01-19T07:41:32.514Z,2.97
2023-01-19T07:44:18.828Z,3.00
2023-01-19T07:47:07.466Z,2.57
2023-01-19T07:49:53.245Z,2.97
2023-01-19T07:52:38.375Z,2.47
2023-01-19T07:55:24.404Z,2.73
2023-01-19T07:58:09.852Z,3.27
2023-01-19T08:00:55.157Z,3.03
2023-01-19T08:03:40.471Z,2.97
2023-01-19T08:06:45.761Z,2.90
2023-01-19T08:09:31.234Z,3.30
2023-01-19T08:12:17.163Z,2.57
2023-01-19T08:15:02.429Z,2.43
2023-01-19T08:17:56.757Z,2.70
2023-01-19T08:20:42.083Z,2.93
2023-01-19T08:23:28.128Z,3.23
2023-01-19T08:26:30.801Z,2.87
2023-01-19T08:29:16.342Z,2.70
2023-01-19T08:32:03.056Z,2.77
2023-01-19T08:34:48.227Z,3.00
2023-01-19T08:37:34.363Z,3.00
2023-01-19T08:40:20.232Z,2.83
2023-01-19T08:43:08.043Z,2.90
2023-01-19T08:45:53.921Z,3.23
2023-01-19T08:48:40.117Z,2.73
2023-01-19T08:51:25.845Z,3.10
2023-01-19T08:54:11.202Z,3.70
2023-01-19T08:56:56.406Z,3.10
2023-01-19T08:59:41.864Z,3.57
2023-01-19T09:02:27.173Z,3.27
2023-01-19T09:05:12.291Z,3.17
2023-01-19T09:07:57.490Z,3.57
2023-01-19T09:10:48.204Z,3.20
2023-01-19T09:13:33.923Z,3.03
2023-01-19T09:16:19.248Z,3.27
2023-01-19T09:19:04.550Z,3.43
2023-01-19T09:21:50.826Z,3.70
2023-01-19T09:24:36.821Z,3.13
2023-01-19T09:27:22.192Z,3.37
2023-01-19T09:30:11.376Z,3.13
2023-01-19T09:33:02.599Z,3.03
2023-01-19T09:35:49.259Z,2.83
2023-01-19T09:38:34.968Z,3.10
2023-01-19T09:41:22.564Z,3.17
2023-01-19T09:44:17.216Z,2.83
2023-01-19T09:47:12.497Z,3.07
2023-01-19T09:50:03.415Z,2.53
2023-01-19T09:52:57.031Z,3.20
2023-01-19T09:58:28.754Z,2.80
2023-01-19T10:01:28.482Z,2.70
2023-01-19T10:04:32.384Z,2.67
2023-01-19T10:07:23.916Z,3.08
2023-01-19T10:10:30.924Z,2.73
2023-01-19T10:13:30.202Z,2.70
2023-01-19T10:16:56.907Z,2.80
2023-01-19T10:19:47.556Z,2.30
2023-01-19T10:22:33.410Z,2.53
2023-01-19T10:25:23.871Z,2.57
2023-01-19T10:28:13.640Z,2.50
2023-01-19T10:30:59.252Z,2.40
2023-01-19T10:33:45.113Z,2.40
2023-01-19T10:36:40.819Z,2.60
2023-01-19T10:39:26.506Z,2.40
2023-01-19T10:42:17.020Z,2.50
2023-01-19T10:45:02.207Z,2.60
2023-01-19T10:47:48.957Z,2.27
2023-01-19T10:50:39.625Z,2.50
2023-01-19T10:53:25.700Z,2.33
2023-01-19T10:56:17.760Z,2.30
2023-01-19T10:59:06.022Z,2.17
2023-01-19T11:02:22.768Z,2.20
2023-01-19T11:05:26.268Z,1.73
2023-01-19T11:08:30.527Z,2.22
2023-01-19T11:11:16.074Z,2.17
2023-01-19T11:14:11.718Z,1.93
2023-01-19T11:16:58.746Z,2.03
2023-01-19T11:19:54.610Z,1.90
2023-01-19T11:22:39.875Z,2.00
2023-01-19T11:25:31.011Z,1.90
2023-01-19T11:28:31.623Z,1.90
2023-01-19T11:31:33.842Z,1.63
2023-01-19T11:34:22.313Z,1.80
2023-01-19T11:37:17.231Z,1.80
2023-01-19T11:40:08.260Z,1.87
2023-01-19T11:42:53.381Z,1.80
2023-01-19T11:45:39.923Z,1.50
2023-01-19T11:48:33.397Z,2.10
2023-01-19T11:54:20.887Z,2.50
2023-01-19T11:57:15.127Z,2.00
2023-01-19T12:00:05.155Z,1.90
2023-01-19T12:02:55.705Z,1.90
2023-01-19T12:05:48.173Z,1.80
2023-01-19T12:08:39.636Z,2.30
2023-01-19T12:11:33.875Z,2.13
2023-01-19T12:23:25.727Z,1.80
2023-01-19T12:26:19.411Z,1.80
2023-01-19T12:29:10.505Z,1.80
2023-01-19T12:32:13.265Z,1.50
2023-01-19T12:34:58.575Z,1.63
2023-01-19T12:37:45.265Z,1.87
2023-01-19T12:40:31.528Z,1.80
2023-01-19T12:43:17.207Z,1.63
2023-01-19T12:46:02.421Z,2.10
2023-01-19T12:48:47.823Z,1.80
2023-01-19T12:51:33.383Z,1.70
2023-01-19T12:54:27.722Z,1.80
2023-01-19T12:57:20.943Z,2.07
2023-01-19T13:00:28.185Z,2.08
2023-01-19T13:03:19.824Z,1.87
2023-01-19T13:06:05.211Z,2.03
2023-01-19T13:09:01.587Z,1.77
2023-01-19T13:12:14.831Z,2.00
2023-01-19T13:15:33.778Z,2.03
2023-01-19T13:18:30.083Z,2.03
2023-01-19T13:21:35.973Z,1.90
2023-01-19T13:24:23.104Z,1.80
2023-01-19T13:27:13.151Z,1.50
2023-01-19T13:29:59.309Z,1.67
2023-01-19T13:32:45.113Z,1.47
2023-01-19T13:35:30.525Z,1.63
2023-01-19T13:38:16.613Z,1.53
2023-01-19T13:41:03.113Z,1.90
2023-01-19T13:43:54.394Z,1.60
2023-01-19T13:46:41.090Z,1.60
2023-01-19T13:49:36.988Z,1.57
2023-01-19T13:52:26.827Z,1.70
2023-01-19T13:55:14.167Z,1.77
2023-01-19T13:57:59.695Z,1.23
2023-01-19T14:00:46.412Z,1.70
2023-01-19T14:03:31.684Z,1.33
2023-01-19T14:06:31.780Z,1.50
2023-01-19T14:09:19.483Z,1.50
2023-01-19T14:12:14.070Z,1.40
2023-01-19T14:14:59.508Z,1.50
2023-01-19T14:17:44.568Z,1.50
2023-01-19T14:20:30.918Z,1.90
2023-01-19T14:23:44.387Z,1.40
2023-01-19T14:26:48.081Z,1.70
2023-01-19T14:29:35.231Z,1.58
2023-01-19T14:32:23.314Z,1.60
2023-01-19T14:35:14.897Z,1.10
2023-01-19T14:38:00.060Z,1.80
2023-01-19T14:40:45.724Z,1.33
2023-01-19T14:43:31.428Z,1.40
2023-01-19T14:46:19.286Z,1.53
2023-01-19T14:49:06.638Z,1.53
2023-01-19T14:51:52.178Z,1.40
2023-01-19T14:54:40.698Z,1.60
2023-01-19T14:57:26.367Z,1.53
2023-01-19T15:00:17.383Z,1.50
2023-01-19T15:03:03.059Z,1.70
2023-01-19T15:05:50.269Z,1.53
2023-01-19T15:08:38.910Z,1.40
2023-01-19T15:11:32.088Z,1.70
2023-01-19T15:14:20.894Z,1.75
2023-01-19T15:17:06.575Z,1.73
2023-01-19T15:19:56.171Z,1.40
2023-01-19T15:22:41.929Z,1.70
2023-01-19T15:25:27.334Z,1.43
2023-01-19T15:28:18.491Z,2.03
2023-01-19T15:31:03.803Z,1.40
2023-01-19T15:33:50.027Z,1.60
2023-01-19T15:36:35.388Z,1.77
2023-01-19T15:39:20.773Z,1.40
2023-01-19T15:42:12.981Z,1.47
2023-01-19T15:44:58.351Z,1.40
2023-01-19T15:47:45.025Z,1.70
2023-01-19T15:50:31.102Z,1.47
2023-01-19T15:53:19.823Z,1.63
2023-01-19T15:56:05.925Z,1.60
2023-01-19T15:58:52.916Z,1.63
2023-01-19T16:01:40.309Z,1.93
2023-01-19T16:04:26.025Z,1.80
2023-01-19T16:07:12.478Z,1.33
2023-01-19T16:09:57.579Z,1.83
2023-01-19T16:12:47.825Z,1.63
2023-01-19T16:15:36.407Z,1.57
2023-01-19T16:18:21.739Z,1.60
2023-01-19T16:21:07.008Z,1.50
2023-01-19T16:23:52.975Z,1.43
2023-01-19T16:26:38.259Z,1.87
2023-01-19T16:29:23.686Z,1.40
2023-01-19T16:32:08.847Z,1.63
2023-01-19T16:34:54.084Z,1.70
2023-01-19T16:37:39.749Z,1.73
2023-01-19T16:40:26.332Z,1.60
2023-01-19T16:43:12.732Z,1.63
2023-01-19T16:46:04.346Z,1.60
2023-01-19T16:48:51.600Z,1.73
2023-01-19T16:51:37.899Z,2.60
2023-01-19T16:54:27.353Z,3.00
2023-01-19T16:57:13.149Z,2.93
2023-01-19T16:59:58.874Z,3.10
2023-01-19T17:02:44.197Z,2.80
2023-01-19T17:05:29.557Z,2.90
2023-01-19T17:08:14.956Z,3.23
2023-01-19T17:11:02.921Z,3.27
2023-01-19T17:13:50.541Z,3.87
2023-01-19T17:16:36.452Z,3.53
2023-01-19T17:19:23.073Z,4.07
2023-01-19T17:22:08.415Z,4.20
2023-01-19T17:24:53.813Z,4.90
2023-01-19T17:27:39.091Z,4.40
2023-01-19T17:30:24.242Z,8.37
2023-01-19T17:33:09.606Z,11.97
2023-01-19T17:35:54.797Z,10.17
2023-01-19T17:38:40.783Z,9.93
2023-01-19T17:41:28.811Z,9.90
2023-01-19T17:44:14.748Z,8.10
2023-01-19T17:47:00.189Z,7.73
2023-01-19T17:49:45.540Z,10.70
2023-01-19T17:52:31.422Z,11.07
2023-01-19T17:55:18.377Z,15.47
2023-01-19T17:58:03.742Z,15.60
2023-01-19T18:00:49.134Z,14.40
2023-01-19T18:03:34.193Z,13.40
2023-01-19T18:06:20.785Z,11.40
2023-01-19T18:09:07.434Z,10.23
2023-01-19T18:11:53.107Z,10.27
2023-01-19T18:14:38.890Z,9.43
2023-01-19T18:17:24.672Z,9.17
2023-01-19T18:20:10.905Z,9.23
2023-01-19T18:22:56.313Z,9.47
2023-01-19T18:25:43.146Z,8.80
2023-01-19T18:28:29.278Z,9.13
2023-01-19T18:31:18.291Z,8.70
2023-01-19T18:34:04.076Z,8.90
2023-01-19T18:36:49.367Z,8.77
2023-01-19T18:39:35.295Z,8.13
2023-01-19T18:42:20.608Z,7.97
2023-01-19T18:45:06.303Z,7.60
2023-01-19T18:47:51.544Z,7.33
2023-01-19T18:50:37.745Z,7.37
2023-01-19T18:53:24.262Z,6.90
2023-01-19T18:56:13.056Z,7.00
2023-01-19T18:59:00.571Z,7.40
2023-01-19T19:01:47.271Z,7.67
2023-01-19T19:04:32.787Z,6.87
2023-01-19T19:07:18.646Z,7.00
2023-01-19T19:10:05.216Z,7.20
2023-01-19T19:12:50.820Z,7.03
2023-01-19T19:15:36.327Z,6.93
2023-01-19T19:18:22.189Z,7.43
2023-01-19T19:21:09.252Z,6.70
2023-01-19T19:23:56.450Z,5.93
2023-01-19T19:26:42.588Z,6.30
2023-01-19T19:29:30.972Z,6.23
2023-01-19T19:32:20.482Z,6.50
2023-01-19T19:35:06.640Z,6.50
2023-01-19T19:37:57.664Z,6.33
2023-01-19T19:40:43.966Z,5.57
2023-01-19T19:43:32.662Z,5.73
2023-01-19T19:46:20.481Z,6.23
2023-01-19T19:49:06.384Z,5.90
2023-01-19T19:51:52.111Z,6.10
2023-01-19T19:54:37.771Z,5.90
2023-01-19T19:57:25.351Z,5.47
2023-01-19T20:00:11.554Z,5.43
2023-01-19T20:02:57.170Z,5.40
2023-01-19T20:05:42.550Z,5.63
2023-01-19T20:08:29.554Z,5.50
2023-01-19T20:11:19.725Z,4.73
2023-01-19T20:14:06.528Z,5.23
2023-01-19T20:16:54.495Z,5.90
2023-01-19T20:19:39.850Z,5.17
2023-01-19T20:22:25.159Z,4.63
2023-01-19T20:25:11.050Z,5.07
2023-01-19T20:27:57.040Z,5.43
2023-01-19T20:30:42.875Z,5.03
2023-01-19T20:33:28.253Z,4.93
2023-01-19T20:36:14.453Z,5.03
2023-01-19T20:39:00.036Z,5.00
2023-01-19T20:41:45.804Z,5.07
2023-01-19T20:44:31.247Z,4.40
2023-01-19T20:47:16.632Z,5.07
2023-01-19T20:50:02.352Z,4.77
2023-01-19T20:52:48.147Z,4.47
2023-01-19T20:55:33.338Z,4.80
2023-01-19T20:58:18.847Z,4.77
2023-01-19T21:01:13.359Z,4.60
2023-01-19T21:03:58.615Z,4.70
2023-01-19T21:06:44.554Z,4.50
2023-01-19T21:09:30.103Z,4.73
2023-01-19T21:12:16.044Z,4.53
2023-01-19T21:15:01.409Z,4.13
2023-01-19T21:17:46.844Z,4.53
2023-01-19T21:20:33.033Z,4.23
2023-01-19T21:23:19.919Z,4.30
2023-01-19T21:26:06.986Z,4.00
2023-01-19T21:28:52.462Z,4.47
2023-01-19T21:31:38.063Z,4.07
2023-01-19T21:34:23.373Z,4.50
2023-01-19T21:37:08.618Z,3.83
2023-01-19T21:39:53.734Z,4.30
2023-01-19T21:42:40.336Z,3.47
2023-01-19T21:45:26.010Z,3.93
2023-01-19T21:48:11.203Z,4.60
2023-01-19T21:50:57.590Z,4.07
2023-01-19T21:53:43.171Z,4.27
2023-01-19T21:56:30.267Z,4.00
2023-01-19T21:59:15.943Z,3.57
2023-01-19T22:02:01.316Z,3.97
2023-01-19T22:04:46.960Z,3.50
2023-01-19T22:07:32.972Z,3.80
2023-01-19T22:10:18.609Z,3.70
2023-01-19T22:13:06.581Z,3.63
2023-01-19T22:15:59.392Z,3.40
2023-01-19T22:18:49.381Z,3.67
2023-01-19T22:21:38.243Z,3.53
2023-01-19T22:24:23.625Z,3.93
2023-01-19T22:27:08.966Z,3.73
2023-01-19T22:29:54.243Z,3.80
2023-01-19T22:32:39.431Z,3.20
2023-01-19T22:35:24.781Z,3.27
2023-01-19T22:38:10.161Z,3.40
2023-01-19T22:40:55.594Z,3.20
2023-01-19T22:43:40.875Z,3.43
2023-01-19T22:46:29.284Z,3.33
2023-01-19T22:49:16.492Z,3.60
2023-01-19T22:52:01.669Z,3.20
2023-01-19T22:54:47.043Z,3.20
2023-01-19T22:57:35.786Z,3.13
2023-01-19T23:00:21.760Z,3.30
2023-01-19T23:03:07.232Z,3.10
2023-01-19T23:05:52.449Z,3.10
2023-01-19T23:08:38.394Z,3.33
2023-01-19T23:11:29.828Z,3.40
2023-01-19T23:14:18.172Z,3.23
2023-01-19T23:17:03.705Z,3.17
2023-01-19T23:19:48.810Z,3.60
2023-01-19T23:22:34.219Z,3.07
2023-01-19T23:25:19.263Z,3.10
2023-01-19T23:28:04.856Z,2.97
2023-01-19T23:30:50.751Z,3.13
2023-01-19T23:33:36.017Z,2.73
2023-01-19T23:36:23.899Z,2.97
2023-01-19T23:39:21.096Z,2.80
2023-01-19T23:42:08.192Z,2.83
2023-01-19T23:44:53.262Z,3.10
2023-01-19T23:47:43.122Z,3.30
2023-01-19T23:50:28.361Z,2.70
2023-01-19T23:53:13.672Z,2.77
2023-01-19T23:55:58.891Z,3.00
2023-01-19T23:58:48.990Z,2.77
